Time;durP1;ratioP1;P1;durP2;ratioP2;P2;SDS_P1;SDS_P2;PMS_P1;PMS_P2;Temp;Humidity;BMP_temperature;BMP_pressure;BME280_temperature;BME280_humidity;BME280_pressure;Samples;Min_cycle;Max_cycle;Signal;HPM_P1;HPM_P2
2023/01/03 00:01:59;;;;;;;;;;;;;;;;;;6240481;23;19918;-79
2023/01/03 00:04:24;;;;;;;;;;;;;;;;;;6240506;23;19998;-79
2023/01/03 00:06:50;;;;;;;;;;;;;;;;;;6213831;23;20003;-79
2023/01/03 00:09:16;;;;;;;;;;;;;;;;;;6213721;23;19977;-79
2023/01/03 00:14:26;;;;;;;;;;;;;;;;;;6240468;23;19920;-78
2023/01/03 00:16:52;;;;;;;;;;;;;;;;;;6213822;23;19955;-76
2023/01/03 00:19:17;;;;;;;;;;;;;;;;;;6213950;23;19998;-77
2023/01/03 00:21:43;;;;;;;;;;;;;;;;;;6240693;23;19938;-77
2023/01/03 00:24:09;;;;;;;;;;;;;;;;;;6240476;23;20237;-77
2023/01/03 00:26:34;;;;;;;;;;;;;;;;;;6240622;23;19911;-77
2023/01/03 00:29:00;;;;;;;;;;;;;;;;;;6241942;23;20304;-77
2023/01/03 00:31:26;;;;;;;;;;;;;;;;;;6242901;23;19907;-77
2023/01/03 00:33:52;;;;;;;;;;;;;;;;;;6242530;23;20407;-78
2023/01/03 00:36:17;;;;;;;;;;;;;;;;;;6243581;23;20423;-79
2023/01/03 00:38:43;;;;;;;;;;;;;;;;;;6246019;23;19911;-77
2023/01/03 00:41:09;;;;;;;;;;;;;;;;;;6242724;23;20289;-78
2023/01/03 00:43:34;;;;;;;;;;;;;;;;;;6191101;23;19916;-79
2023/01/03 00:46:00;;;;;;;;;;;;;;;;;;6242849;23;20328;-77
2023/01/03 00:48:26;;;;;;;;;;;;;;;;;;6216610;23;19912;-77
2023/01/03 00:50:52;;;;;;;;;;;;;;;;;;6243074;23;19912;-78
2023/01/03 00:53:17;;;;;;;;;;;;;;;;;;6244495;23;19931;-78
2023/01/03 00:55:43;;;;;;;;;;;;;;;;;;6228366;23;19942;-77
2023/01/03 00:58:09;;;;;;;;;;;;;;;;;;6256070;23;19996;-77
2023/01/03 01:00:35;;;;;;;;;;;;;;;;;;6226997;23;19915;-77
2023/01/03 01:03:00;;;;;;;;;;;;;;;;;;6256377;23;19959;-77
2023/01/03 01:05:26;;;;;;;;;;;;;;;;;;6249214;23;19918;-78
2023/01/03 01:07:51;;;;;;;;;;;;;;;;;;6242915;23;19911;-76
2023/01/03 01:10:19;;;;;;;;;;;;;;;;;;6242589;23;19926;-77
2023/01/03 01:12:44;;;;;;;;;;;;;;;;;;6242682;23;19911;-77
2023/01/03 01:15:10;;;;;;;;;;;;;;;;;;6215927;23;19970;-78
2023/01/03 01:17:35;;;;;;;;;;;;;;;;;;6243060;23;19919;-78
2023/01/03 01:20:01;;;;;;;;;;;;;;;;;;6215662;23;19930;-77
2023/01/03 01:22:27;;;;;;;;;;;;;;;;;;6242462;23;19998;-77
2023/01/03 01:24:52;;;;;;;;;;;;;;;;;;6242223;23;19975;-77
2023/01/03 01:27:18;;;;;;;;;;;;;;;;;;6215720;23;20423;-78
2023/01/03 01:29:44;;;;;;;;;;;;;;;;;;6241955;23;19926;-78
2023/01/03 01:32:09;;;;;;;;;;;;;;;;;;6241916;23;20439;-77
2023/01/03 01:34:35;;;;;;;;;;;;;;;;;;6241762;23;19920;-77
2023/01/03 01:37:01;;;;;;;;;;;;;;;;;;6215044;23;19998;-78
2023/01/03 01:39:26;;;;;;;;;;;;;;;;;;6241620;23;19947;-77
2023/01/03 01:44:36;;;;;;;;;;;;;;;;;;6241807;23;19911;-77
2023/01/03 01:47:02;;;;;;;;;;;;;;;;;;6241631;23;20319;-78
2023/01/03 01:49:28;;;;;;;;;;;;;;;;;;6241943;23;19934;-78
2023/01/03 01:51:53;;;;;;;;;;;;;;;;;;6241690;23;19918;-78
2023/01/03 01:54:19;;;;;;;;;;;;;;;;;;6190062;23;19912;-77
2023/01/03 01:56:45;;;;;;;;;;;;;;;;;;6241974;23;19918;-78
2023/01/03 01:59:11;;;;;;;;;;;;;;;;;;6189702;23;19988;-78
2023/01/03 02:01:37;;;;;;;;;;;;;;;;;;6214974;23;19911;-78
2023/01/03 02:04:02;;;;;;;;;;;;;;;;;;6241542;23;19947;-77
2023/01/03 02:06:28;;;;;;;;;;;;;;;;;;6215063;23;19951;-77
2023/01/03 02:08:54;;;;;;;;;;;;;;;;;;6241858;23;19926;-79
2023/01/03 02:11:19;;;;;;;;;;;;;;;;;;6241481;23;20559;-78
2023/01/03 02:13:45;;;;;;;;;;;;;;;;;;6241754;23;20041;-78
2023/01/03 02:16:11;;;;;;;;;;;;;;;;;;6241606;23;19912;-77
2023/01/03 02:18:37;;;;;;;;;;;;;;;;;;6241985;23;19918;-77
2023/01/03 02:21:03;;;;;;;;;;;;;;;;;;6241505;23;19998;-76
2023/01/03 02:23:29;;;;;;;;;;;;;;;;;;6241624;23;19977;-78
2023/01/03 02:25:54;;;;;;;;;;;;;;;;;;6241646;23;19918;-77
2023/01/03 02:28:20;;;;;;;;;;;;;;;;;;6241193;23;19911;-76
2023/01/03 02:30:46;;;;;;;;;;;;;;;;;;6241495;23;20330;-77
2023/01/03 02:33:12;;;;;;;;;;;;;;;;;;6241352;23;19911;-78
2023/01/03 02:35:37;;;;;;;;;;;;;;;;;;6241229;23;20005;-77
2023/01/03 02:38:03;;;;;;;;;;;;;;;;;;6241448;23;19911;-76
2023/01/03 02:40:29;;;;;;;;;;;;;;;;;;6214574;23;19915;-77
2023/01/03 02:42:59;;;;;;;;;;;;;;;;;;6214240;23;20094;-75
2023/01/03 02:45:25;;;;;;;;;;;;;;;;;;6241184;23;19916;-77
2023/01/03 02:47:51;;;;;;;;;;;;;;;;;;6214385;23;20312;-76
2023/01/03 02:50:17;;;;;;;;;;;;;;;;;;6240778;23;19919;-77
2023/01/03 02:52:42;;;;;;;;;;;;;;;;;;6241308;23;19917;-76
2023/01/03 02:55:08;;;;;;;;;;;;;;;;;;6240939;23;19923;-77
2023/01/03 02:57:34;;;;;;;;;;;;;;;;;;6241360;23;19985;-77
2023/01/03 02:59:59;;;;;;;;;;;;;;;;;;6240687;23;19918;-78
2023/01/03 03:02:27;;;;;;;;;;;;;;;;;;6241207;23;19911;-78
2023/01/03 03:04:54;;;;;;;;;;;;;;;;;;6214228;23;19918;-76
2023/01/03 03:07:20;;;;;;;;;;;;;;;;;;6241383;23;19912;-79
2023/01/03 03:15:14;;;;;;;;;;;;;;;;;;6240781;23;19911;-76
2023/01/03 03:17:40;;;;;;;;;;;;;;;;;;6241004;23;19948;-78
2023/01/03 03:25:35;;;;;;;;;;;;;;;;;;6241249;23;19961;-74
2023/01/03 03:30:45;;;;;;;;;;;;;;;;;;6240214;23;20000;-76
2023/01/03 03:33:11;;;;;;;;;;;;;;;;;;6240689;23;19915;-77
2023/01/03 03:35:36;;;;;;;;;;;;;;;;;;6240936;23;19927;-74
2023/01/03 03:38:02;;;;;;;;;;;;;;;;;;6240669;23;20002;-76
2023/01/03 03:45:58;;;;;;;;;;;;;;;;;;6240669;23;20379;-76
2023/01/03 03:48:24;;;;;;;;;;;;;;;;;;6240714;23;19951;-77
2023/01/03 03:50:49;;;;;;;;;;;;;;;;;;6240133;23;19975;-77
2023/01/03 03:53:15;;;;;;;;;;;;;;;;;;6213893;23;20290;-76
2023/01/03 03:55:41;;;;;;;;;;;;;;;;;;6240695;23;19912;-79
2023/01/03 03:58:06;;;;;;;;;;;;;;;;;;6240519;23;19912;-79
2023/01/03 04:00:32;;;;;;;;;;;;;;;;;;6239767;23;19911;-79
2023/01/03 04:02:58;;;;;;;;;;;;;;;;;;6239642;23;19912;-79
2023/01/03 04:05:23;;;;;;;;;;;;;;;;;;6213335;23;20080;-79
2023/01/03 04:07:49;;;;;;;;;;;;;;;;;;6240796;23;20292;-78
2023/01/03 04:10:19;;;;;;;;;;;;;;;;;;6239196;23;19954;-77
2023/01/03 04:12:44;;;;;;;;;;;;;;;;;;6240266;23;19918;-77
2023/01/03 04:15:10;;;;;;;;;;;;;;;;;;6240494;23;19911;-78
2023/01/03 04:17:35;;;;;;;;;;;;;;;;;;6241468;23;20422;-78
2023/01/03 04:20:01;;;;;;;;;;;;;;;;;;6215243;23;19935;-77
2023/01/03 04:22:27;;;;;;;;;;;;;;;;;;6241047;23;19912;-77
2023/01/03 04:24:53;;;;;;;;;;;;;;;;;;6241219;23;19912;-78
2023/01/03 04:27:19;;;;;;;;;;;;;;;;;;6213575;23;19919;-77
2023/01/03 04:29:45;;;;;;;;;;;;;;;;;;6240535;23;19927;-77
2023/01/03 04:32:10;;;;;;;;;;;;;;;;;;6240261;23;19949;-76
2023/01/03 04:34:37;;;;;;;;;;;;;;;;;;6240031;23;19924;-77
2023/01/03 04:37:03;;;;;;;;;;;;;;;;;;6240492;23;19911;-77
2023/01/03 04:39:28;;;;;;;;;;;;;;;;;;6240405;23;19915;-77
2023/01/03 04:41:54;;;;;;;;;;;;;;;;;;6240611;23;19911;-77
2023/01/03 04:44:19;;;;;;;;;;;;;;;;;;6240262;23;19958;-77
2023/01/03 04:46:45;;;;;;;;;;;;;;;;;;6240425;23;20489;-78
2023/01/03 04:49:11;;;;;;;;;;;;;;;;;;6240241;23;19919;-77
2023/01/03 04:51:37;;;;;;;;;;;;;;;;;;6240670;23;19918;-77
2023/01/03 04:54:02;;;;;;;;;;;;;;;;;;6214089;23;19912;-77
2023/01/03 04:56:28;;;;;;;;;;;;;;;;;;6213423;23;19911;-77
2023/01/03 04:58:54;;;;;;;;;;;;;;;;;;6240489;23;19938;-77
2023/01/03 05:01:19;;;;;;;;;;;;;;;;;;6240174;23;19912;-79
2023/01/03 05:03:45;;;;;;;;;;;;;;;;;;6240726;23;19918;-77
2023/01/03 05:06:11;;;;;;;;;;;;;;;;;;6213398;23;19911;-77
2023/01/03 05:08:37;;;;;;;;;;;;;;;;;;6240434;23;19964;-76
2023/01/03 05:11:03;;;;;;;;;;;;;;;;;;6240597;23;19912;-76
2023/01/03 05:13:29;;;;;;;;;;;;;;;;;;6240608;23;19947;-76
2023/01/03 05:15:54;;;;;;;;;;;;;;;;;;6242497;23;19912;-76
2023/01/03 05:18:20;;;;;;;;;;;;;;;;;;6242303;23;19911;-75
2023/01/03 05:26:15;;;;;;;;;;;;;;;;;;6215246;23;20322;-76
2023/01/03 05:28:41;;;;;;;;;;;;;;;;;;6242451;23;19911;-76
2023/01/03 05:31:06;;;;;;;;;;;;;;;;;;6242561;23;19966;-77
2023/01/03 05:33:32;;;;;;;;;;;;;;;;;;6241755;23;20360;-80
2023/01/03 05:35:58;;;;;;;;;;;;;;;;;;6242373;23;19912;-80
2023/01/03 05:38:24;;;;;;;;;;;;;;;;;;6191011;23;19911;-81
2023/01/03 05:40:49;;;;;;;;;;;;;;;;;;6242390;23;19911;-79
2023/01/03 05:43:15;;;;;;;;;;;;;;;;;;6243146;23;19915;-79
2023/01/03 05:45:40;;;;;;;;;;;;;;;;;;6241591;23;19911;-79
2023/01/03 05:48:06;;;;;;;;;;;;;;;;;;6241501;23;19911;-79
2023/01/03 05:50:32;;;;;;;;;;;;;;;;;;6241343;23;20283;-77
2023/01/03 05:52:57;;;;;;;;;;;;;;;;;;6214959;23;19916;-78
2023/01/03 05:55:23;;;;;;;;;;;;;;;;;;6241637;23;19917;-79
2023/01/03 05:57:49;;;;;;;;;;;;;;;;;;6242019;23;19922;-79
2023/01/03 06:00:14;;;;;;;;;;;;;;;;;;6240693;23;19915;-77
2023/01/03 06:02:40;;;;;;;;;;;;;;;;;;6238650;23;19911;-78
2023/01/03 06:05:05;;;;;;;;;;;;;;;;;;6241338;23;19999;-80
2023/01/03 06:07:32;;;;;;;;;;;;;;;;;;6214182;23;19912;-78
2023/01/03 06:09:58;;;;;;;;;;;;;;;;;;6242557;23;19926;-80
2023/01/03 06:12:24;;;;;;;;;;;;;;;;;;6216466;23;19911;-81
2023/01/03 06:14:49;;;;;;;;;;;;;;;;;;6245990;23;20013;-81
2023/01/03 06:19:59;;;;;;;;;;;;;;;;;;6247943;23;20467;-81
2023/01/03 06:22:25;;;;;;;;;;;;;;;;;;6222046;23;19912;-82
2023/01/03 06:24:50;;;;;;;;;;;;;;;;;;6247844;23;20325;-83
2023/01/03 06:27:16;;;;;;;;;;;;;;;;;;6217524;23;19946;-81
2023/01/03 06:29:42;;;;;;;;;;;;;;;;;;6243792;23;19916;-82
2023/01/03 06:32:07;;;;;;;;;;;;;;;;;;6248067;23;19958;-82
2023/01/03 06:34:33;;;;;;;;;;;;;;;;;;6219187;23;19997;-81
2023/01/03 06:36:59;;;;;;;;;;;;;;;;;;6246904;23;20348;-81
2023/01/03 06:39:24;;;;;;;;;;;;;;;;;;6198445;23;20640;-82
2023/01/03 06:41:50;;;;;;;;;;;;;;;;;;6249311;23;19919;-79
2023/01/03 06:44:15;;;;;;;;;;;;;;;;;;6222214;23;19911;-80
2023/01/03 06:54:54;;;;;;;;;;;;;;;;;;6255847;23;19912;-80
2023/01/03 06:57:20;;;;;;;;;;;;;;;;;;6255586;23;20045;-79
2023/01/03 06:59:46;;;;;;;;;;;;;;;;;;6225739;23;19915;-79
2023/01/03 07:02:11;;;;;;;;;;;;;;;;;;6220314;23;19947;-81
2023/01/03 07:04:37;;;;;;;;;;;;;;;;;;6221022;23;19915;-81
2023/01/03 07:07:03;;;;;;;;;;;;;;;;;;6244127;23;19946;-81
2023/01/03 07:09:28;;;;;;;;;;;;;;;;;;6241483;23;19985;-80
2023/01/03 07:11:54;;;;;;;;;;;;;;;;;;6241899;23;19965;-81
2023/01/03 07:14:19;;;;;;;;;;;;;;;;;;6212872;23;19935;-79
2023/01/03 07:16:45;;;;;;;;;;;;;;;;;;6240429;23;19931;-80
2023/01/03 07:19:11;;;;;;;;;;;;;;;;;;6240799;23;20816;-81
2023/01/03 07:21:37;;;;;;;;;;;;;;;;;;6212142;23;20002;-80
2023/01/03 07:24:02;;;;;;;;;;;;;;;;;;6241119;23;19934;-81
2023/01/03 07:26:32;;;;;;;;;;;;;;;;;;6240808;23;19922;-79
2023/01/03 07:28:58;;;;;;;;;;;;;;;;;;6240616;23;19920;-80
2023/01/03 07:31:23;;;;;;;;;;;;;;;;;;6240351;23;19938;-79
2023/01/03 07:33:49;;;;;;;;;;;;;;;;;;6242305;23;19915;-80
2023/01/03 07:36:15;;;;;;;;;;;;;;;;;;6243053;23;19912;-79
2023/01/03 07:38:40;;;;;;;;;;;;;;;;;;6244089;23;20016;-81
2023/01/03 07:41:09;;;;;;;;;;;;;;;;;;6246620;23;19911;-83
2023/01/03 07:43:38;;;;;;;;;;;;;;;;;;6225375;23;19975;-82
2023/01/03 07:46:03;;;;;;;;;;;;;;;;;;6226907;23;20292;-82
2023/01/03 07:48:29;;;;;;;;;;;;;;;;;;6252445;23;19931;-81
2023/01/03 07:50:55;;;;;;;;;;;;;;;;;;6251913;23;19918;-81
2023/01/03 07:53:20;;;;;;;;;;;;;;;;;;6254690;23;19912;-81
2023/01/03 07:55:46;;;;;;;;;;;;;;;;;;6241954;23;19912;-77
2023/01/03 07:58:12;;;;;;;;;;;;;;;;;;6240252;23;19919;-77
2023/01/03 08:00:37;;;;;;;;;;;;;;;;;;6239183;23;19931;-77
2023/01/03 08:03:03;;;;;;;;;;;;;;;;;;6239212;23;19911;-76
2023/01/03 08:05:29;;;;;;;;;;;;;;;;;;6239222;23;20655;-74
2023/01/03 08:07:54;;;;;;;;;;;;;;;;;;6239782;23;20287;-75
2023/01/03 08:13:17;;;;;;;;;;;;;;;;;;6242806;23;20359;-75
2023/01/03 08:15:44;;;;;;;;;;;;;;;;;;6244687;23;19912;-75
2023/01/03 08:18:10;;;;;;;;;;;;;;;;;;6241572;23;19915;-76
2023/01/03 08:20:36;;;;;;;;;;;;;;;;;;6244868;23;20265;-75
2023/01/03 08:23:01;;;;;;;;;;;;;;;;;;6246360;23;19990;-75
2023/01/03 08:25:27;;;;;;;;;;;;;;;;;;6197202;23;19919;-76
2023/01/03 08:27:53;;;;;;;;;;;;;;;;;;6249827;23;19911;-76
2023/01/03 08:30:18;;;;;;;;;;;;;;;;;;6248881;23;19927;-76
2023/01/03 08:32:44;;;;;;;;;;;;;;;;;;6222789;23;20441;-77
2023/01/03 08:35:10;;;;;;;;;;;;;;;;;;6254041;23;19919;-76
2023/01/03 08:37:35;;;;;;;;;;;;;;;;;;6249999;23;19911;-76
2023/01/03 08:40:01;;;;;;;;;;;;;;;;;;6248971;23;19996;-75
2023/01/03 08:42:28;;;;;;;;;;;;;;;;;;6225907;23;19933;-76
2023/01/03 08:44:53;;;;;;;;;;;;;;;;;;6256693;23;19912;-76
2023/01/03 08:47:19;;;;;;;;;;;;;;;;;;6251235;23;19922;-75
2023/01/03 08:49:44;;;;;;;;;;;;;;;;;;6250339;23;19926;-75
2023/01/03 08:52:10;;;;;;;;;;;;;;;;;;6250811;23;19912;-75
2023/01/03 08:54:36;;;;;;;;;;;;;;;;;;6224545;23;19942;-75
2023/01/03 08:57:01;;;;;;;;;;;;;;;;;;6227258;23;19982;-76
2023/01/03 08:59:28;;;;;;;;;;;;;;;;;;6252107;23;20372;-75
2023/01/03 09:01:54;;;;;;;;;;;;;;;;;;6226149;23;19990;-75
2023/01/03 09:04:19;;;;;;;;;;;;;;;;;;6252100;23;19918;-75
2023/01/03 09:06:45;;;;;;;;;;;;;;;;;;6254466;23;19912;-75
2023/01/03 09:09:11;;;;;;;;;;;;;;;;;;6253579;23;20013;-76
2023/01/03 09:11:37;;;;;;;;;;;;;;;;;;6252885;23;20275;-75
2023/01/03 09:14:02;;;;;;;;;;;;;;;;;;6251913;23;19912;-76
2023/01/03 09:16:28;;;;;;;;;;;;;;;;;;6249889;23;19912;-76
2023/01/03 09:18:53;;;;;;;;;;;;;;;;;;6251783;23;19916;-75
2023/01/03 09:21:19;;;;;;;;;;;;;;;;;;6251421;23;19927;-75
2023/01/03 09:23:45;;;;;;;;;;;;;;;;;;6223862;23;19911;-74
2023/01/03 09:26:10;;;;;;;;;;;;;;;;;;6252399;23;19912;-75
2023/01/03 09:28:36;;;;;;;;;;;;;;;;;;6255568;23;19912;-76
2023/01/03 09:31:02;;;;;;;;;;;;;;;;;;6228271;23;19935;-76
2023/01/03 09:33:28;;;;;;;;;;;;;;;;;;6251383;23;19942;-75
2023/01/03 09:35:53;;;;;;;;;;;;;;;;;;6252307;23;19943;-76
2023/01/03 09:38:19;;;;;;;;;;;;;;;;;;6254690;23;19915;-76
2023/01/03 09:40:45;;;;;;;;;;;;;;;;;;6254256;23;19978;-75
2023/01/03 09:43:14;;;;;;;;;;;;;;;;;;6253279;23;19919;-75
2023/01/03 09:45:42;;;;;;;;;;;;;;;;;;6222468;23;20019;-74
2023/01/03 09:48:07;;;;;;;;;;;;;;;;;;6246569;23;19959;-74
2023/01/03 09:50:33;;;;;;;;;;;;;;;;;;6243510;23;19966;-75
2023/01/03 10:03:58;;;;;;;;;;;;;;;;;;6218533;23;20368;-74
2023/01/03 10:06:23;;;;;;;;;;;;;;;;;;6247810;23;19918;-75
2023/01/03 10:08:49;;;;;;;;;;;;;;;;;;6250019;23;19915;-76
2023/01/03 10:11:15;;;;;;;;;;;;;;;;;;6246775;23;19911;-74
2023/01/03 10:13:41;;;;;;;;;;;;;;;;;;6247145;23;19912;-75
2023/01/03 10:16:06;;;;;;;;;;;;;;;;;;6256129;23;19911;-76
2023/01/03 10:18:32;;;;;;;;;;;;;;;;;;6254482;23;19954;-79
2023/01/03 10:20:57;;;;;;;;;;;;;;;;;;6228590;23;20340;-78
2023/01/03 10:23:23;;;;;;;;;;;;;;;;;;6257206;23;19911;-78
2023/01/03 10:25:49;;;;;;;;;;;;;;;;;;6259080;23;20159;-79
2023/01/03 10:28:14;;;;;;;;;;;;;;;;;;6208131;23;20002;-79
2023/01/03 10:30:40;;;;;;;;;;;;;;;;;;6261222;23;19919;-78
2023/01/03 10:33:06;;;;;;;;;;;;;;;;;;6256967;23;19912;-77
2023/01/03 10:35:31;;;;;;;;;;;;;;;;;;6256414;23;19919;-78
2023/01/03 10:37:57;;;;;;;;;;;;;;;;;;6225954;23;19932;-80
2023/01/03 10:40:22;;;;;;;;;;;;;;;;;;6257751;23;19931;-80
2023/01/03 10:42:49;;;;;;;;;;;;;;;;;;6254077;23;19943;-78
2023/01/03 10:45:14;;;;;;;;;;;;;;;;;;6250847;23;19912;-78
2023/01/03 10:47:40;;;;;;;;;;;;;;;;;;6248604;23;19922;-77
2023/01/03 10:50:06;;;;;;;;;;;;;;;;;;6246922;23;19919;-79
2023/01/03 10:52:31;;;;;;;;;;;;;;;;;;6246139;23;19912;-79
2023/01/03 10:54:57;;;;;;;;;;;;;;;;;;6244704;23;19911;-78
2023/01/03 10:57:22;;;;;;;;;;;;;;;;;;6213916;23;19918;-78
2023/01/03 10:59:49;;;;;;;;;;;;;;;;;;6215652;23;19912;-79
2023/01/03 11:02:15;;;;;;;;;;;;;;;;;;6246038;23;19934;-79
2023/01/03 11:04:40;;;;;;;;;;;;;;;;;;6240401;23;19912;-77
2023/01/03 11:07:06;;;;;;;;;;;;;;;;;;6240595;23;19912;-78
2023/01/03 11:09:32;;;;;;;;;;;;;;;;;;6239421;23;19920;-77
2023/01/03 11:11:57;;;;;;;;;;;;;;;;;;6240791;23;19912;-78
2023/01/03 11:14:23;;;;;;;;;;;;;;;;;;6242385;23;19912;-77
2023/01/03 11:16:49;;;;;;;;;;;;;;;;;;6242087;23;20009;-77
2023/01/03 11:19:14;;;;;;;;;;;;;;;;;;6242850;23;20348;-76
2023/01/03 11:21:40;;;;;;;;;;;;;;;;;;6241712;23;19911;-75
2023/01/03 11:24:06;;;;;;;;;;;;;;;;;;6240469;23;19911;-76
2023/01/03 11:26:31;;;;;;;;;;;;;;;;;;6239484;23;19911;-76
2023/01/03 11:28:57;;;;;;;;;;;;;;;;;;6239815;23;19919;-76
2023/01/03 11:31:22;;;;;;;;;;;;;;;;;;6239999;23;20386;-76
2023/01/03 11:33:48;;;;;;;;;;;;;;;;;;6237965;23;19912;-77
2023/01/03 11:36:14;;;;;;;;;;;;;;;;;;6213141;23;20005;-76
2023/01/03 11:38:39;;;;;;;;;;;;;;;;;;6240382;23;19911;-76
2023/01/03 11:41:05;;;;;;;;;;;;;;;;;;6240607;23;20371;-75
2023/01/03 11:43:31;;;;;;;;;;;;;;;;;;6239749;23;20355;-77
2023/01/03 11:45:57;;;;;;;;;;;;;;;;;;6188896;23;19916;-77
2023/01/03 11:48:23;;;;;;;;;;;;;;;;;;6164497;23;20434;-76
2023/01/03 11:50:48;;;;;;;;;;;;;;;;;;6213590;23;19989;-77
2023/01/03 11:53:14;;;;;;;;;;;;;;;;;;6240622;23;19935;-77
2023/01/03 11:55:40;;;;;;;;;;;;;;;;;;6240639;23;19911;-77
2023/01/03 11:58:05;;;;;;;;;;;;;;;;;;6240052;23;19912;-78
2023/01/03 12:00:31;;;;;;;;;;;;;;;;;;6240300;23;19919;-76
2023/01/03 12:02:57;;;;;;;;;;;;;;;;;;6240492;23;19934;-75
2023/01/03 12:05:22;;;;;;;;;;;;;;;;;;6237396;23;19918;-75
2023/01/03 12:07:48;;;;;;;;;;;;;;;;;;6238989;23;19915;-75
2023/01/03 12:10:14;;;;;;;;;;;;;;;;;;6239185;23;20283;-76
2023/01/03 12:12:40;;;;;;;;;;;;;;;;;;6240681;23;19995;-76
2023/01/03 12:15:07;;;;;;;;;;;;;;;;;;6240855;23;19911;-75
2023/01/03 12:17:33;;;;;;;;;;;;;;;;;;6241492;23;19947;-75
2023/01/03 12:19:58;;;;;;;;;;;;;;;;;;6243639;23;19923;-76
2023/01/03 12:22:24;;;;;;;;;;;;;;;;;;6221528;23;19911;-74
2023/01/03 12:24:50;;;;;;;;;;;;;;;;;;6255527;23;19912;-74
2023/01/03 12:27:15;;;;;;;;;;;;;;;;;;6255587;23;19927;-74
2023/01/03 12:29:41;;;;;;;;;;;;;;;;;;6251727;23;19994;-74
2023/01/03 12:32:07;;;;;;;;;;;;;;;;;;6214370;23;19998;-74
2023/01/03 12:34:33;;;;;;;;;;;;;;;;;;6241079;23;20331;-75
2023/01/03 12:36:58;;;;;;;;;;;;;;;;;;6242185;23;19938;-75
2023/01/03 12:39:24;;;;;;;;;;;;;;;;;;6241970;23;20011;-74
2023/01/03 12:41:50;;;;;;;;;;;;;;;;;;6214522;23;19919;-75
2023/01/03 12:44:15;;;;;;;;;;;;;;;;;;6241005;23;19998;-75
2023/01/03 12:46:41;;;;;;;;;;;;;;;;;;6240687;23;19912;-74
2023/01/03 12:49:07;;;;;;;;;;;;;;;;;;6214040;23;20348;-74
2023/01/03 12:51:32;;;;;;;;;;;;;;;;;;6240704;23;19969;-75
2023/01/03 12:53:58;;;;;;;;;;;;;;;;;;6214476;23;20425;-74
2023/01/03 12:56:23;;;;;;;;;;;;;;;;;;6241736;23;19950;-74
2023/01/03 12:58:49;;;;;;;;;;;;;;;;;;6214911;23;19933;-75
2023/01/03 13:01:16;;;;;;;;;;;;;;;;;;6241476;23;20366;-74
2023/01/03 13:03:42;;;;;;;;;;;;;;;;;;6213853;23;19911;-74
2023/01/03 13:06:07;;;;;;;;;;;;;;;;;;6241754;23;20200;-74
2023/01/03 13:08:33;;;;;;;;;;;;;;;;;;6241613;23;19919;-74
2023/01/03 13:10:59;;;;;;;;;;;;;;;;;;6241464;23;19923;-75
2023/01/03 13:13:24;;;;;;;;;;;;;;;;;;6241374;23;19998;-74
2023/01/03 13:15:50;;;;;;;;;;;;;;;;;;6241685;23;20393;-74
2023/01/03 13:18:16;;;;;;;;;;;;;;;;;;6241911;23;20343;-76
2023/01/03 13:20:41;;;;;;;;;;;;;;;;;;6242176;23;20344;-74
2023/01/03 13:23:07;;;;;;;;;;;;;;;;;;6242026;23;20245;-74
2023/01/03 13:25:32;;;;;;;;;;;;;;;;;;6242101;23;19919;-75
2023/01/03 13:27:58;;;;;;;;;;;;;;;;;;6242298;23;19973;-74
2023/01/03 13:30:24;;;;;;;;;;;;;;;;;;6215469;23;19920;-74
2023/01/03 13:32:49;;;;;;;;;;;;;;;;;;6241241;23;19918;-73
2023/01/03 13:35:16;;;;;;;;;;;;;;;;;;6209278;23;19927;-72
2023/01/03 13:37:44;;;;;;;;;;;;;;;;;;6209629;23;19997;-72
2023/01/03 13:40:12;;;;;;;;;;;;;;;;;;6184692;23;20280;-71
2023/01/03 13:43:21;;;;;;;;;;;;;;;;;;6211317;23;19977;-71
2023/01/03 13:45:52;;;;;;;;;;;;;;;;;;6209601;23;19912;-73
2023/01/03 13:48:18;;;;;;;;;;;;;;;;;;6209782;23;19916;-72
2023/01/03 13:50:44;;;;;;;;;;;;;;;;;;6159679;23;20344;-72
2023/01/03 13:53:09;;;;;;;;;;;;;;;;;;6184845;23;19994;-72
2023/01/03 13:55:35;;;;;;;;;;;;;;;;;;6184404;23;19912;-72
2023/01/03 13:58:03;;;;;;;;;;;;;;;;;;6209532;23;20010;-72
2023/01/03 14:00:29;;;;;;;;;;;;;;;;;;6209842;23;19999;-73
2023/01/03 14:02:55;;;;;;;;;;;;;;;;;;6184612;23;19920;-71
2023/01/03 14:05:20;;;;;;;;;;;;;;;;;;6211262;23;19957;-72
2023/01/03 14:07:46;;;;;;;;;;;;;;;;;;6184322;23;19916;-72
2023/01/03 14:10:12;;;;;;;;;;;;;;;;;;6211489;23;19920;-73
2023/01/03 14:12:38;;;;;;;;;;;;;;;;;;6213416;23;19991;-79
2023/01/03 14:15:05;;;;;;;;;;;;;;;;;;6210833;23;20675;-80
2023/01/03 14:17:31;;;;;;;;;;;;;;;;;;6174497;23;19935;-79
2023/01/03 14:19:56;;;;;;;;;;;;;;;;;;6171841;23;19966;-79
2023/01/03 14:22:22;;;;;;;;;;;;;;;;;;6147082;23;19912;-78
2023/01/03 14:24:48;;;;;;;;;;;;;;;;;;6198986;23;20416;-78
2023/01/03 14:27:13;;;;;;;;;;;;;;;;;;6199047;23;19912;-79
2023/01/03 14:29:39;;;;;;;;;;;;;;;;;;6199527;23;20380;-79
2023/01/03 14:32:05;;;;;;;;;;;;;;;;;;6198213;23;19923;-79
2023/01/03 14:34:31;;;;;;;;;;;;;;;;;;6197797;23;20025;-79
2023/01/03 14:36:57;;;;;;;;;;;;;;;;;;6172970;23;19923;-79
2023/01/03 14:39:31;;;;;;;;;;;;;;;;;;6147487;23;20003;-79
2023/01/03 14:42:02;;;;;;;;;;;;;;;;;;6196166;23;19918;-79
2023/01/03 14:44:28;;;;;;;;;;;;;;;;;;6199002;23;19975;-80
2023/01/03 14:47:05;;;;;;;;;;;;;;;;;;6195199;23;19912;-82
2023/01/03 14:49:30;;;;;;;;;;;;;;;;;;6195802;23;19926;-78
2023/01/03 14:51:56;;;;;;;;;;;;;;;;;;6197202;23;20313;-78
2023/01/03 14:54:22;;;;;;;;;;;;;;;;;;6197245;23;20223;-76
2023/01/03 14:56:47;;;;;;;;;;;;;;;;;;6197175;23;20268;-77
2023/01/03 14:59:13;;;;;;;;;;;;;;;;;;6197345;23;19912;-78
2023/01/03 15:01:39;;;;;;;;;;;;;;;;;;6197634;23;19991;-77
2023/01/03 15:04:04;;;;;;;;;;;;;;;;;;6200552;23;20261;-78
2023/01/03 15:06:30;;;;;;;;;;;;;;;;;;6195711;23;19915;-77
2023/01/03 15:08:56;;;;;;;;;;;;;;;;;;6195133;23;19920;-78
2023/01/03 15:11:21;;;;;;;;;;;;;;;;;;6197167;23;20422;-76
2023/01/03 15:13:47;;;;;;;;;;;;;;;;;;6197417;23;20015;-77
2023/01/03 15:16:13;;;;;;;;;;;;;;;;;;6195327;23;19912;-76
2023/01/03 15:18:38;;;;;;;;;;;;;;;;;;6194488;23;19912;-76
2023/01/03 15:21:05;;;;;;;;;;;;;;;;;;6195229;23;19912;-75
2023/01/03 15:23:30;;;;;;;;;;;;;;;;;;6196591;23;20285;-76
2023/01/03 15:25:56;;;;;;;;;;;;;;;;;;6196864;23;19912;-76
2023/01/03 15:28:22;;;;;;;;;;;;;;;;;;6195353;23;20002;-75
2023/01/03 15:30:48;;;;;;;;;;;;;;;;;;6194826;23;19924;-76
2023/01/03 15:33:13;;;;;;;;;;;;;;;;;;6197477;23;20479;-77
2023/01/03 15:35:39;;;;;;;;;;;;;;;;;;6194752;23;19924;-76
2023/01/03 15:38:05;;;;;;;;;;;;;;;;;;6196674;23;19940;-76
2023/01/03 15:40:31;;;;;;;;;;;;;;;;;;6169935;23;19987;-76
2023/01/03 15:45:42;;;;;;;;;;;;;;;;;;6194026;23;19918;-76
2023/01/03 15:48:07;;;;;;;;;;;;;;;;;;6193067;23;20368;-76
2023/01/03 15:50:36;;;;;;;;;;;;;;;;;;6193700;23;19958;-77
2023/01/03 15:53:01;;;;;;;;;;;;;;;;;;6195618;23;19912;-77
2023/01/03 15:55:27;;;;;;;;;;;;;;;;;;6195243;23;19912;-75
2023/01/03 15:57:53;;;;;;;;;;;;;;;;;;6195260;23;20406;-78
2023/01/03 16:00:18;;;;;;;;;;;;;;;;;;6193742;23;19912;-78
2023/01/03 16:02:44;;;;;;;;;;;;;;;;;;6193454;23;19919;-77
2023/01/03 16:05:10;;;;;;;;;;;;;;;;;;6194735;23;20440;-78
2023/01/03 16:07:35;;;;;;;;;;;;;;;;;;6195428;23;20523;-79
2023/01/03 16:10:01;;;;;;;;;;;;;;;;;;6195066;23;19920;-79
2023/01/03 16:12:27;;;;;;;;;;;;;;;;;;6196310;23;19919;-78
2023/01/03 16:14:52;;;;;;;;;;;;;;;;;;6196000;23;20003;-78
2023/01/03 16:17:18;;;;;;;;;;;;;;;;;;6195443;23;19908;-78
2023/01/03 16:19:43;;;;;;;;;;;;;;;;;;6195110;23;20364;-78
2023/01/03 16:22:09;;;;;;;;;;;;;;;;;;6195785;23;19999;-78
2023/01/03 16:24:35;;;;;;;;;;;;;;;;;;6194291;23;19912;-79
2023/01/03 16:27:00;;;;;;;;;;;;;;;;;;6193385;23;19912;-77
2023/01/03 16:29:26;;;;;;;;;;;;;;;;;;6194859;23;20391;-78
2023/01/03 16:31:52;;;;;;;;;;;;;;;;;;6195490;23;19908;-77
2023/01/03 16:34:18;;;;;;;;;;;;;;;;;;6196849;23;20370;-78
2023/01/03 16:36:46;;;;;;;;;;;;;;;;;;6197043;23;19911;-79
2023/01/03 16:39:11;;;;;;;;;;;;;;;;;;6226598;23;19988;-79
2023/01/03 16:41:37;;;;;;;;;;;;;;;;;;6199860;23;20218;-79
2023/01/03 16:44:03;;;;;;;;;;;;;;;;;;6226298;23;19915;-78
2023/01/03 16:46:29;;;;;;;;;;;;;;;;;;6225310;23;20310;-78
2023/01/03 16:48:54;;;;;;;;;;;;;;;;;;6225369;23;20371;-79
2023/01/03 16:51:20;;;;;;;;;;;;;;;;;;6225435;23;20252;-78
2023/01/03 16:53:46;;;;;;;;;;;;;;;;;;6225515;23;19911;-78
2023/01/03 16:56:12;;;;;;;;;;;;;;;;;;6197801;23;19914;-78
2023/01/03 16:58:39;;;;;;;;;;;;;;;;;;6225597;23;19914;-78
2023/01/03 17:01:04;;;;;;;;;;;;;;;;;;6224838;23;20337;-77
2023/01/03 17:03:30;;;;;;;;;;;;;;;;;;6225821;23;20004;-78
2023/01/03 17:05:56;;;;;;;;;;;;;;;;;;6225475;23;20170;-78
2023/01/03 17:08:21;;;;;;;;;;;;;;;;;;6198399;23;20277;-77
2023/01/03 17:10:47;;;;;;;;;;;;;;;;;;6227145;23;19919;-78
2023/01/03 17:13:13;;;;;;;;;;;;;;;;;;6227691;23;20309;-78
2023/01/03 17:15:38;;;;;;;;;;;;;;;;;;6228133;23;19912;-78
2023/01/03 17:18:04;;;;;;;;;;;;;;;;;;6229391;23;20310;-78
2023/01/03 17:20:30;;;;;;;;;;;;;;;;;;6228660;23;19915;-78
2023/01/03 17:22:55;;;;;;;;;;;;;;;;;;6227211;23;19911;-77
2023/01/03 17:25:21;;;;;;;;;;;;;;;;;;6228381;23;20186;-78
2023/01/03 17:27:47;;;;;;;;;;;;;;;;;;6227296;23;19911;-78
2023/01/03 17:30:12;;;;;;;;;;;;;;;;;;6227973;23;19926;-79
2023/01/03 17:32:38;;;;;;;;;;;;;;;;;;6201261;23;20319;-78
2023/01/03 17:35:04;;;;;;;;;;;;;;;;;;6194898;23;20357;-77